createdAt,value
2022-08-17T00:00:34.937Z,81.33
2022-08-17T00:03:06.223Z,81.80
2022-08-17T00:05:36.720Z,82.17
2022-08-17T00:08:05.674Z,82.26
2022-08-17T00:10:35.492Z,82.43
2022-08-17T00:13:07.321Z,82.72
2022-08-17T00:15:35.190Z,82.53
2022-08-17T00:18:03.049Z,82.53
2022-08-17T00:20:33.444Z,82.63
2022-08-17T00:23:05.920Z,82.63
2022-08-17T00:25:35.473Z,82.92
2022-08-17T00:28:03.462Z,83.10
2022-08-17T00:30:31.654Z,83.11
2022-08-17T00:33:23.673Z,83.64
2022-08-17T00:35:52.473Z,83.68
2022-08-17T00:38:20.980Z,83.77
2022-08-17T00:40:55.962Z,83.95
2022-08-17T00:43:32.453Z,83.75
2022-08-17T00:46:03.097Z,83.91
2022-08-17T00:48:31.619Z,84.66
2022-08-17T00:51:06.606Z,84.52
2022-08-17T00:53:39.929Z,84.39
2022-08-17T00:56:12.971Z,84.87
2022-08-17T00:58:42.062Z,85.10
2022-08-17T01:01:12.467Z,85.10
2022-08-17T01:03:50.395Z,85.31
2022-08-17T01:06:18.908Z,85.71
2022-08-17T01:08:47.080Z,85.93
2022-08-17T01:11:17.300Z,85.68
2022-08-17T01:13:47.796Z,85.48
2022-08-17T01:16:21.527Z,85.54
2022-08-17T01:18:51.616Z,85.50
2022-08-17T01:21:27.948Z,85.33
2022-08-17T01:23:57.797Z,85.59
2022-08-17T01:26:25.952Z,85.53
2022-08-17T01:28:55.997Z,85.68
2022-08-17T01:31:31.533Z,86.09
2022-08-17T01:34:02.577Z,86.00
2022-08-17T01:36:30.684Z,86.40
2022-08-17T01:39:00.191Z,86.58
2022-08-17T01:41:29.350Z,86.38
2022-08-17T01:44:02.504Z,86.74
2022-08-17T01:46:33.512Z,86.54
2022-08-17T01:49:02.576Z,86.76
2022-08-17T01:51:33.032Z,86.60
2022-08-17T01:54:06.237Z,86.88
2022-08-17T01:56:36.272Z,87.11
2022-08-17T01:59:05.230Z,87.18
2022-08-17T02:01:37.147Z,87.38
2022-08-17T02:04:08.408Z,87.10
2022-08-17T02:06:53.661Z,87.38
2022-08-17T02:09:25.919Z,87.44
2022-08-17T02:11:55.009Z,87.65
2022-08-17T02:14:25.251Z,87.66
2022-08-17T02:16:53.973Z,87.62
2022-08-17T02:19:22.878Z,87.63
2022-08-17T02:21:52.803Z,88.00
2022-08-17T02:24:59.964Z,87.93
2022-08-17T02:27:14.995Z,88.01
2022-08-17T02:29:42.888Z,88.40
2022-08-17T02:32:20.994Z,88.30
2022-08-17T02:34:56.724Z,88.36
2022-08-17T02:37:24.864Z,88.40
2022-08-17T02:39:54.286Z,88.70
2022-08-17T02:42:28.602Z,88.74
2022-08-17T02:44:56.511Z,88.73
2022-08-17T02:47:25.168Z,89.15
2022-08-17T02:49:55.513Z,89.46
2022-08-17T02:52:42.534Z,89.88
2022-08-17T02:55:15.412Z,89.87
2022-08-17T02:57:43.512Z,90.20
2022-08-17T03:00:25.860Z,90.22
2022-08-17T03:02:54.185Z,90.02
2022-08-17T03:05:23.508Z,90.89
2022-08-17T03:07:52.250Z,90.78
2022-08-17T03:10:22.586Z,90.67
2022-08-17T03:12:50.654Z,90.19
2022-08-17T03:15:21.077Z,90.46
2022-08-17T03:17:49.663Z,90.54
2022-08-17T03:20:18.303Z,90.76
2022-08-17T03:22:53.431Z,91.19
2022-08-17T03:25:25.703Z,91.67
2022-08-17T03:27:54.232Z,91.84
2022-08-17T03:30:23.468Z,91.51
2022-08-17T03:32:53.239Z,91.57
2022-08-17T03:35:23.213Z,91.70
2022-08-17T03:37:59.965Z,91.85
2022-08-17T03:40:55.875Z,91.92
2022-08-17T03:43:20.384Z,92.14
2022-08-17T03:46:10.747Z,92.46
2022-08-17T03:49:12.454Z,92.48
2022-08-17T03:51:58.040Z,92.70
2022-08-17T03:54:43.621Z,92.82
2022-08-17T03:57:13.913Z,93.05
2022-08-17T03:59:42.611Z,93.47
2022-08-17T04:02:14.061Z,93.50
2022-08-17T04:04:41.994Z,93.81
2022-08-17T04:07:09.885Z,94.00
2022-08-17T04:09:37.857Z,94.02
2022-08-17T04:12:07.081Z,93.97
2022-08-17T04:14:51.855Z,94.97
2022-08-17T04:17:23.030Z,95.61
2022-08-17T04:19:50.958Z,95.87
2022-08-17T04:22:32.680Z,96.07
2022-08-17T04:25:04.393Z,96.13
2022-08-17T04:27:32.390Z,96.52
2022-08-17T04:30:01.855Z,96.87
2022-08-17T04:33:04.098Z,96.83
2022-08-17T04:35:22.508Z,97.17
2022-08-17T04:37:50.340Z,97.35
2022-08-17T04:40:37.045Z,97.42
2022-08-17T04:43:07.098Z,97.30
2022-08-17T04:45:40.845Z,96.89
2022-08-17T04:48:23.280Z,96.91
2022-08-17T04:50:55.858Z,96.83
2022-08-17T04:53:23.695Z,96.94
2022-08-17T04:55:53.127Z,96.98
2022-08-17T04:58:21.626Z,96.99
2022-08-17T05:00:50.905Z,97.25
2022-08-17T05:03:18.810Z,97.59
2022-08-17T05:05:49.485Z,97.88
2022-08-17T05:08:18.813Z,98.30
2022-08-17T05:10:47.961Z,98.66
2022-08-17T05:13:19.665Z,98.71
2022-08-17T05:15:51.208Z,99.07
2022-08-17T05:18:19.156Z,99.62
2022-08-17T05:20:47.160Z,99.43
2022-08-17T05:23:16.721Z,99.21
2022-08-17T05:25:47.916Z,98.88
2022-08-17T05:28:16.823Z,98.87
2022-08-17T05:30:49.229Z,99.21
2022-08-17T05:33:21.476Z,99.48
2022-08-17T05:35:52.243Z,99.13
2022-08-17T05:38:22.457Z,99.39
2022-08-17T05:40:51.308Z,99.40
2022-08-17T05:43:21.872Z,100.00
2022-08-17T05:45:58.599Z,100.00
2022-08-17T05:48:35.818Z,100.00
2022-08-17T05:51:35.585Z,100.00
2022-08-17T05:54:16.585Z,100.00
2022-08-17T05:57:04.261Z,100.00
2022-08-17T05:59:41.652Z,100.00
2022-08-17T06:02:20.027Z,100.00
2022-08-17T06:05:02.862Z,100.00
2022-08-17T06:07:37.915Z,99.74
2022-08-17T06:10:13.587Z,99.29
2022-08-17T06:12:49.152Z,99.32
2022-08-17T06:15:28.608Z,99.49
2022-08-17T06:18:03.186Z,99.80
2022-08-17T06:20:39.699Z,99.99
2022-08-17T06:23:14.300Z,99.57
2022-08-17T06:25:49.333Z,99.29
2022-08-17T06:28:26.814Z,98.65
2022-08-17T06:31:01.418Z,98.24
2022-08-17T06:33:34.377Z,98.29
2022-08-17T06:36:16.031Z,97.43
2022-08-17T06:38:54.186Z,96.62
2022-08-17T06:41:31.491Z,95.18
2022-08-17T06:44:49.901Z,94.04
2022-08-17T06:47:09.036Z,92.45
2022-08-17T06:49:53.221Z,91.41
2022-08-17T06:52:45.726Z,91.28
2022-08-17T06:55:21.402Z,90.25
2022-08-17T06:57:53.849Z,89.27
2022-08-17T07:04:54.908Z,86.15
2022-08-17T07:11:51.621Z,83.71
2022-08-17T07:14:37.772Z,84.05
2022-08-17T07:17:10.130Z,83.46
2022-08-17T07:19:41.405Z,82.79
2022-08-17T07:22:22.949Z,82.05
2022-08-17T07:24:53.683Z,82.07
2022-08-17T07:27:27.546Z,81.56
2022-08-17T07:29:59.384Z,80.83
2022-08-17T07:32:31.601Z,80.43
2022-08-17T07:35:11.295Z,79.72
2022-08-17T07:37:40.663Z,78.93
2022-08-17T07:40:25.819Z,78.23
2022-08-17T07:43:23.764Z,77.67
2022-08-17T07:46:13.172Z,77.40
2022-08-17T07:48:43.871Z,76.69
2022-08-17T07:51:27.021Z,75.89
2022-08-17T07:54:13.102Z,74.93
2022-08-17T07:56:45.866Z,73.16
2022-08-17T07:59:18.132Z,72.88
2022-08-17T08:02:03.571Z,72.04
2022-08-17T08:04:59.027Z,70.82
2022-08-17T08:07:28.611Z,70.20
2022-08-17T08:10:08.407Z,69.15
2022-08-17T08:12:37.932Z,67.67
2022-08-17T08:15:19.049Z,66.41
2022-08-17T08:17:51.958Z,65.98
2022-08-17T08:20:52.412Z,65.34
2022-08-17T08:23:18.836Z,64.42
2022-08-17T08:25:59.516Z,64.18
2022-08-17T08:28:35.164Z,63.36
2022-08-17T08:31:13.841Z,62.81
2022-08-17T08:33:54.989Z,61.12
2022-08-17T08:37:12.856Z,59.95
2022-08-17T08:39:35.479Z,59.39
2022-08-17T08:42:10.289Z,57.99
2022-08-17T08:45:00.953Z,57.33
2022-08-17T08:48:05.370Z,56.52
2022-08-17T08:50:47.618Z,56.28
2022-08-17T08:53:23.622Z,55.24
2022-08-17T08:55:56.882Z,53.24
2022-08-17T08:58:41.722Z,52.54
2022-08-17T09:01:22.306Z,52.36
2022-08-17T09:04:23.337Z,51.63
2022-08-17T09:07:05.055Z,50.50
2022-08-17T09:09:41.117Z,49.55
2022-08-17T09:12:15.397Z,48.59
2022-08-17T09:14:57.943Z,47.60
2022-08-17T09:17:36.155Z,46.99
2022-08-17T09:20:27.386Z,45.82
2022-08-17T09:23:02.744Z,46.00
2022-08-17T09:25:36.357Z,46.58
2022-08-17T09:28:07.560Z,46.20
2022-08-17T09:30:42.380Z,44.38
2022-08-17T09:33:12.569Z,44.17
2022-08-17T09:35:46.685Z,43.46
2022-08-17T09:38:22.379Z,43.19
2022-08-17T09:40:56.548Z,42.23
2022-08-17T09:43:33.479Z,41.73
2022-08-17T09:46:04.955Z,40.81
2022-08-17T09:48:38.768Z,39.97
2022-08-17T09:51:14.980Z,40.00
2022-08-17T09:53:44.708Z,39.88
2022-08-17T09:56:27.605Z,40.73
2022-08-17T09:59:18.054Z,40.17
2022-08-17T10:01:50.916Z,38.87
2022-08-17T10:04:33.240Z,38.46
2022-08-17T10:07:11.453Z,38.08
2022-08-17T10:09:49.705Z,38.10
2022-08-17T10:12:32.083Z,38.79
2022-08-17T10:15:22.525Z,37.69
2022-08-17T10:18:07.712Z,38.27
2022-08-17T10:21:13.267Z,38.70
2022-08-17T10:24:05.749Z,37.98
2022-08-17T10:26:55.400Z,38.25
2022-08-17T10:29:29.744Z,36.53
2022-08-17T10:32:12.386Z,36.45
2022-08-17T10:35:03.836Z,35.74
2022-08-17T10:37:48.578Z,34.55
2022-08-17T10:40:27.914Z,34.40
2022-08-17T10:42:59.690Z,34.48
2022-08-17T10:45:34.797Z,34.06
2022-08-17T10:48:27.865Z,34.36
2022-08-17T10:51:02.557Z,34.85
2022-08-17T10:53:53.261Z,34.23
2022-08-17T10:56:38.940Z,34.63
2022-08-17T10:59:09.016Z,34.82
2022-08-17T11:02:13.992Z,34.05
2022-08-17T11:04:58.431Z,34.46
2022-08-17T11:07:43.860Z,33.68
2022-08-17T11:10:49.940Z,33.61
2022-08-17T11:13:33.649Z,33.61
2022-08-17T11:16:13.691Z,34.17
2022-08-17T11:18:58.016Z,33.42
2022-08-17T11:21:41.706Z,33.37
2022-08-17T11:24:18.422Z,32.76
2022-08-17T11:27:01.831Z,32.22
2022-08-17T11:29:36.226Z,31.71
2022-08-17T11:32:11.544Z,32.02
2022-08-17T11:34:40.999Z,31.91
2022-08-17T11:37:33.974Z,31.76
2022-08-17T11:40:15.444Z,32.27
2022-08-17T11:43:08.966Z,32.50
2022-08-17T11:46:04.042Z,32.31
2022-08-17T11:48:57.031Z,32.38
2022-08-17T11:51:45.881Z,31.88
2022-08-17T11:54:38.931Z,31.19
2022-08-17T11:57:40.410Z,31.27
2022-08-17T12:00:10.953Z,31.66
2022-08-17T12:02:48.277Z,31.81
2022-08-17T12:05:33.362Z,32.35
2022-08-17T12:08:24.134Z,32.33
2022-08-17T12:11:03.972Z,32.54
2022-08-17T12:13:39.403Z,32.43
2022-08-17T12:16:09.365Z,32.66
2022-08-17T12:18:47.476Z,32.17
2022-08-17T12:21:49.853Z,32.68
2022-08-17T12:24:31.315Z,32.62
2022-08-17T12:27:01.295Z,32.97
2022-08-17T12:29:38.931Z,32.93
2022-08-17T12:32:13.936Z,32.99
2022-08-17T12:34:44.081Z,30.72
2022-08-17T12:37:19.018Z,30.86
2022-08-17T12:39:57.739Z,30.71
2022-08-17T12:42:29.368Z,30.12
2022-08-17T12:44:57.684Z,30.21
2022-08-17T12:47:26.608Z,30.95
2022-08-17T12:50:08.374Z,30.92
2022-08-17T12:53:02.003Z,30.23
2022-08-17T12:55:36.611Z,30.75
2022-08-17T12:58:05.305Z,31.23
2022-08-17T13:00:37.625Z,30.89
2022-08-17T13:03:09.637Z,29.27
2022-08-17T13:05:43.616Z,29.95
2022-08-17T13:08:17.713Z,29.96
2022-08-17T13:10:56.556Z,30.12
2022-08-17T13:13:26.412Z,29.98
2022-08-17T13:15:57.080Z,29.42
2022-08-17T13:18:41.877Z,29.04
2022-08-17T13:21:22.209Z,29.03
2022-08-17T13:24:01.311Z,29.63
2022-08-17T13:26:33.965Z,29.53
2022-08-17T13:29:03.595Z,28.74
2022-08-17T13:31:51.165Z,28.14
2022-08-17T13:34:34.658Z,27.88
2022-08-17T13:37:27.014Z,28.38
2022-08-17T13:39:57.958Z,27.56
2022-08-17T13:42:52.022Z,27.38
2022-08-17T13:45:38.944Z,26.53
2022-08-17T13:48:13.537Z,26.72
2022-08-17T13:50:45.150Z,26.78
2022-08-17T13:53:18.577Z,26.11
2022-08-17T13:55:54.390Z,25.81
2022-08-17T13:58:25.137Z,25.90
2022-08-17T14:00:53.485Z,24.77
2022-08-17T14:03:21.719Z,25.59
2022-08-17T14:05:50.980Z,26.07
2022-08-17T14:08:20.764Z,25.61
2022-08-17T14:10:58.250Z,25.34
2022-08-17T14:13:26.115Z,25.38
2022-08-17T14:15:56.528Z,25.51
2022-08-17T14:18:35.601Z,25.16
2022-08-17T14:21:13.155Z,24.78
2022-08-17T14:23:41.108Z,24.60
2022-08-17T14:26:18.741Z,24.77
2022-08-17T14:28:56.511Z,24.87
2022-08-17T14:31:25.120Z,24.46
2022-08-17T14:33:53.115Z,24.61
2022-08-17T14:36:21.034Z,24.74
2022-08-17T14:38:48.861Z,24.85
2022-08-17T14:41:22.046Z,25.06
2022-08-17T14:43:52.969Z,25.73
2022-08-17T14:46:21.448Z,25.32
2022-08-17T14:48:55.135Z,25.53
2022-08-17T14:51:30.007Z,26.03
2022-08-17T14:53:58.630Z,26.09
2022-08-17T14:56:28.520Z,26.35
2022-08-17T14:59:03.186Z,26.40
2022-08-17T15:01:31.178Z,26.70
2022-08-17T15:03:59.448Z,26.29
2022-08-17T15:06:27.300Z,26.37
2022-08-17T15:08:55.736Z,26.66
2022-08-17T15:11:23.603Z,26.60
2022-08-17T15:13:53.397Z,26.90
2022-08-17T15:16:21.619Z,26.75
2022-08-17T15:18:50.181Z,26.54
2022-08-17T15:21:18.317Z,26.58
2022-08-17T15:23:46.680Z,26.89
2022-08-17T15:26:14.649Z,27.06
2022-08-17T15:28:42.554Z,27.21
2022-08-17T15:31:11.776Z,27.04
2022-08-17T15:33:39.985Z,27.11
2022-08-17T15:36:09.322Z,27.35
2022-08-17T15:38:39.399Z,27.16
2022-08-17T15:41:08.656Z,27.17
2022-08-17T15:43:37.227Z,27.38
2022-08-17T15:46:10.538Z,27.34
2022-08-17T15:48:42.192Z,27.45
2022-08-17T15:51:13.958Z,27.66
2022-08-17T15:53:43.925Z,27.71
2022-08-17T15:56:13.709Z,27.76
2022-08-17T15:58:42.514Z,28.07
2022-08-17T16:01:17.127Z,28.89
2022-08-17T16:04:04.821Z,29.18
2022-08-17T16:06:37.277Z,29.07
2022-08-17T16:09:05.312Z,28.85
2022-08-17T16:11:33.162Z,29.05
2022-08-17T16:14:01.023Z,28.61
2022-08-17T16:16:31.274Z,28.96
2022-08-17T16:19:00.503Z,28.89
2022-08-17T16:21:42.834Z,29.25
2022-08-17T16:24:13.103Z,29.37
2022-08-17T16:26:41.747Z,29.19
2022-08-17T16:29:10.343Z,29.52
2022-08-17T16:31:38.603Z,29.29
2022-08-17T16:34:17.717Z,29.52
2022-08-17T16:36:55.615Z,29.72
2022-08-17T16:39:29.146Z,29.63
2022-08-17T16:41:57.796Z,29.46
2022-08-17T16:44:31.681Z,29.94
2022-08-17T16:47:01.263Z,30.21
2022-08-17T16:49:37.451Z,29.96
2022-08-17T16:52:10.022Z,30.36
2022-08-17T16:54:40.632Z,30.96
2022-08-17T16:57:08.669Z,30.45
2022-08-17T16:59:40.935Z,30.99
2022-08-17T17:02:14.284Z,30.74
2022-08-17T17:04:51.092Z,30.86
2022-08-17T17:07:37.268Z,31.79
2022-08-17T17:10:09.560Z,32.09
2022-08-17T17:13:03.608Z,32.69
2022-08-17T17:15:40.411Z,32.24
2022-08-17T17:18:14.799Z,32.32
2022-08-17T17:20:54.179Z,32.43
2022-08-17T17:23:36.542Z,33.22
2022-08-17T17:26:15.360Z,34.76
2022-08-17T17:28:52.133Z,35.55
2022-08-17T17:31:23.858Z,36.06
2022-08-17T17:33:55.947Z,36.56
2022-08-17T17:36:30.565Z,37.07
2022-08-17T17:39:04.255Z,37.53
2022-08-17T17:41:37.898Z,37.99
2022-08-17T17:44:12.247Z,38.67
2022-08-17T17:46:45.078Z,38.78
2022-08-17T17:49:14.321Z,39.09
2022-08-17T17:52:06.700Z,39.08
2022-08-17T17:54:55.641Z,39.76
2022-08-17T17:57:33.716Z,39.79
2022-08-17T18:00:09.345Z,39.55
2022-08-17T18:02:54.440Z,39.15
2022-08-17T18:05:36.344Z,40.30
2022-08-17T18:08:16.470Z,39.99
2022-08-17T18:10:51.136Z,40.76
2022-08-17T18:13:29.219Z,41.13
2022-08-17T18:16:00.771Z,40.88
2022-08-17T18:18:40.773Z,40.99
2022-08-17T18:21:16.805Z,41.14
2022-08-17T18:23:53.861Z,41.51
2022-08-17T18:26:55.328Z,41.93
2022-08-17T18:29:42.215Z,42.05
2022-08-17T18:32:19.338Z,41.66
2022-08-17T18:34:50.214Z,41.71
2022-08-17T18:37:33.740Z,41.46
2022-08-17T18:40:35.431Z,40.78
2022-08-17T18:43:09.526Z,41.82
2022-08-17T18:45:54.559Z,42.97
2022-08-17T18:48:33.147Z,43.26
2022-08-17T18:51:40.659Z,43.81
2022-08-17T18:54:21.889Z,43.34
2022-08-17T18:56:54.147Z,43.75
2022-08-17T18:59:40.063Z,44.37
2022-08-17T19:02:44.620Z,44.96
2022-08-17T19:05:18.790Z,44.79
2022-08-17T19:07:49.121Z,44.89
2022-08-17T19:10:26.371Z,44.94
2022-08-17T19:13:12.690Z,44.83
2022-08-17T19:15:46.646Z,44.88
2022-08-17T19:18:39.469Z,45.21
2022-08-17T19:21:12.343Z,45.87
2022-08-17T19:23:53.516Z,45.94
2022-08-17T19:26:53.853Z,46.12
2022-08-17T19:29:26.181Z,47.05
2022-08-17T19:31:59.518Z,47.83
2022-08-17T19:34:33.475Z,47.47
2022-08-17T19:37:09.038Z,47.31
2022-08-17T19:39:44.403Z,47.59
2022-08-17T19:42:17.123Z,48.17
2022-08-17T19:44:56.380Z,48.29
2022-08-17T19:47:53.735Z,48.36
2022-08-17T19:50:31.458Z,48.55
2022-08-17T19:53:09.952Z,48.90
2022-08-17T19:55:51.130Z,48.73
2022-08-17T19:58:33.249Z,49.47
2022-08-17T20:01:06.913Z,50.34
2022-08-17T20:03:41.363Z,50.87
2022-08-17T20:06:13.998Z,50.76
2022-08-17T20:08:49.893Z,51.10
2022-08-17T20:11:23.012Z,50.96
2022-08-17T20:14:05.247Z,51.63
2022-08-17T20:16:37.698Z,51.94
2022-08-17T20:19:12.434Z,52.26
2022-08-17T20:21:54.028Z,52.48
2022-08-17T20:24:28.583Z,53.05
2022-08-17T20:27:02.847Z,53.66
2022-08-17T20:29:40.247Z,53.46
2022-08-17T20:32:27.923Z,53.64
2022-08-17T20:35:08.128Z,54.31
2022-08-17T20:37:43.372Z,54.16
2022-08-17T20:40:39.460Z,54.75
2022-08-17T20:43:51.677Z,55.05
2022-08-17T20:46:31.987Z,54.91
2022-08-17T20:49:25.823Z,54.11
2022-08-17T20:52:05.090Z,54.37
2022-08-17T20:54:51.561Z,53.82
2022-08-17T20:57:49.239Z,54.03
2022-08-17T21:00:47.138Z,54.60
2022-08-17T21:03:51.070Z,54.35
2022-08-17T21:06:23.869Z,54.34
2022-08-17T21:08:57.777Z,54.75
2022-08-17T21:11:57.113Z,55.55
2022-08-17T21:15:00.066Z,55.40
2022-08-17T21:17:49.953Z,56.28
2022-08-17T21:20:40.171Z,56.73
2022-08-17T21:23:47.038Z,56.89
2022-08-17T21:26:30.596Z,57.40
2022-08-17T21:29:29.689Z,57.38
2022-08-17T21:32:24.221Z,57.62
2022-08-17T21:35:22.770Z,57.53
2022-08-17T21:37:54.296Z,57.49
2022-08-17T21:40:27.641Z,57.33
2022-08-17T21:42:58.269Z,57.59
2022-08-17T21:45:30.237Z,57.71
2022-08-17T21:48:13.189Z,57.24
2022-08-17T21:50:44.176Z,57.42
2022-08-17T21:53:19.572Z,57.77
2022-08-17T21:55:51.305Z,58.16
2022-08-17T21:58:30.721Z,58.53
2022-08-17T22:01:23.665Z,58.83
2022-08-17T22:04:20.304Z,59.41
2022-08-17T22:06:56.822Z,59.80
2022-08-17T22:09:27.908Z,60.17
2022-08-17T22:12:05.936Z,60.06
2022-08-17T22:14:53.095Z,60.20
2022-08-17T22:17:25.070Z,60.67
2022-08-17T22:22:30.400Z,61.56
2022-08-17T22:25:04.256Z,61.44
2022-08-17T22:27:49.949Z,61.57
2022-08-17T22:30:26.574Z,61.57
2022-08-17T22:32:55.885Z,61.91
2022-08-17T22:35:37.459Z,62.04
2022-08-17T22:38:32.554Z,62.50
2022-08-17T22:41:31.485Z,62.50
2022-08-17T22:44:08.807Z,63.03
2022-08-17T22:46:41.752Z,63.04
2022-08-17T22:49:10.343Z,63.42
2022-08-17T22:51:38.527Z,63.70
2022-08-17T22:54:36.507Z,63.96
2022-08-17T22:57:29.524Z,64.11
2022-08-17T22:59:59.665Z,64.47
2022-08-17T23:02:29.487Z,64.72
2022-08-17T23:05:22.113Z,65.21
2022-08-17T23:07:53.864Z,65.59
2022-08-17T23:10:22.358Z,65.71
2022-08-17T23:12:52.366Z,66.10
2022-08-17T23:15:22.080Z,66.79
2022-08-17T23:17:50.723Z,66.72
2022-08-17T23:20:19.397Z,67.06
2022-08-17T23:22:51.759Z,67.01
2022-08-17T23:25:27.266Z,67.33
2022-08-17T23:27:55.790Z,67.44
2022-08-17T23:30:30.791Z,67.38
2022-08-17T23:33:01.267Z,67.47
2022-08-17T23:35:40.508Z,67.58
2022-08-17T23:38:10.451Z,67.81
2022-08-17T23:40:40.126Z,67.60
2022-08-17T23:43:23.881Z,68.00
2022-08-17T23:45:57.820Z,68.42
2022-08-17T23:48:34.973Z,68.60
2022-08-17T23:51:09.223Z,68.73
2022-08-17T23:53:40.218Z,69.07
2022-08-17T23:56:11.482Z,69.09
2022-08-17T23:58:42.330Z,69.36
